Time;durP1;ratioP1;P1;durP2;ratioP2;P2;SDS_P1;SDS_P2;PMS_P1;PMS_P2;Temp;Humidity;BMP_temperature;BMP_pressure;BME280_temperature;BME280_humidity;BME280_pressure;Samples;Min_cycle;Max_cycle;Signal;HPM_P1;HPM_P2
2023/05/13 00:01:43;;;;;;;14.60;9.98;;;;;;;11.69;100.00;101628.63;5027541;28;20033;-75
2023/05/13 00:04:09;;;;;;;14.35;10.60;;;;;;;11.68;100.00;101632.22;5042639;28;20041;-77
2023/05/13 00:06:35;;;;;;;14.85;10.38;;;;;;;11.68;100.00;101627.03;5011395;28;20025;-76
2023/05/13 00:09:01;;;;;;;12.45;9.45;;;;;;;11.67;100.00;101632.34;5044046;28;20407;-77
2023/05/13 00:11:26;;;;;;;11.93;8.68;;;;;;;11.66;100.00;101630.72;5030274;28;20055;-76
2023/05/13 00:13:52;;;;;;;13.82;8.55;;;;;;;11.64;100.00;101635.22;5029445;28;20052;-78
2023/05/13 00:16:17;;;;;;;17.55;9.40;;;;;;;11.61;100.00;101636.34;5028638;28;20120;-77
2023/05/13 00:18:43;;;;;;;11.98;8.48;;;;;;;11.59;100.00;101635.66;5043284;28;20115;-77
2023/05/13 00:21:09;;;;;;;16.00;9.10;;;;;;;11.56;100.00;101635.13;5030441;28;20043;-77
2023/05/13 00:23:34;;;;;;;16.02;9.30;;;;;;;11.45;100.00;101642.16;5044212;28;20032;-78
2023/05/13 00:26:00;;;;;;;12.30;8.35;;;;;;;11.38;100.00;101645.44;5047754;28;20029;-76
2023/05/13 00:28:25;;;;;;;15.23;9.50;;;;;;;11.33;100.00;101639.84;5031193;28;20524;-75
2023/05/13 00:30:51;;;;;;;12.07;9.18;;;;;;;11.32;100.00;101638.19;5028478;28;20037;-77
2023/05/13 00:33:16;;;;;;;15.05;9.93;;;;;;;11.29;100.00;101632.31;5030190;28;20041;-78
2023/05/13 00:35:42;;;;;;;15.07;9.40;;;;;;;11.30;100.00;101630.53;5031567;28;20510;-76
2023/05/13 00:38:08;;;;;;;13.48;9.75;;;;;;;11.29;100.00;101640.13;5028057;28;20073;-77
2023/05/13 00:40:38;;;;;;;14.05;9.93;;;;;;;11.26;100.00;101632.63;5028530;28;20119;-76
2023/05/13 00:43:04;;;;;;;16.15;10.13;;;;;;;11.25;100.00;101622.38;5010316;28;20025;-77
2023/05/13 00:45:30;;;;;;;16.88;11.10;;;;;;;11.25;100.00;101627.56;5025738;28;20376;-77
2023/05/13 00:47:56;;;;;;;19.23;10.65;;;;;;;11.25;100.00;101628.38;5024488;28;20048;-77
2023/05/13 00:50:22;;;;;;;14.40;10.75;;;;;;;11.25;100.00;101635.34;5014570;28;20493;-77
2023/05/13 00:52:49;;;;;;;15.63;11.35;;;;;;;11.24;100.00;101628.50;5046056;28;20021;-77
2023/05/13 00:55:15;;;;;;;14.38;10.60;;;;;;;11.23;100.00;101632.91;5018204;28;20032;-78
2023/05/13 00:57:41;;;;;;;18.50;11.68;;;;;;;11.21;100.00;101629.63;5028254;28;20499;-76
2023/05/13 01:00:08;;;;;;;16.75;11.98;;;;;;;11.22;100.00;101627.84;5029572;28;20048;-76
2023/05/13 01:02:52;;;;;;;16.33;12.23;;;;;;;11.21;100.00;101634.00;5038418;28;20047;-79
2023/05/13 01:05:51;;;;;;;17.60;11.65;;;;;;;11.19;100.00;101639.34;5026171;28;20133;-77
2023/05/13 01:08:30;;;;;;;17.08;12.00;;;;;;;11.17;100.00;101633.47;5048044;28;20049;-76
2023/05/13 01:10:57;;;;;;;18.33;12.10;;;;;;;11.16;100.00;101626.63;5030916;23;20042;-73
2023/05/13 01:13:27;;;;;;;20.25;13.48;;;;;;;11.15;100.00;101624.16;5006783;28;20141;-73
2023/05/13 01:16:02;;;;;;;18.25;13.30;;;;;;;11.13;100.00;101620.88;5012083;28;20040;-73
2023/05/13 01:18:34;;;;;;;21.73;13.52;;;;;;;11.10;100.00;101624.59;5007975;28;20034;-73
2023/05/13 01:21:01;;;;;;;20.52;13.38;;;;;;;11.06;100.00;101616.25;4992014;28;20563;-73
2023/05/13 01:23:27;;;;;;;17.40;12.68;;;;;;;11.04;100.00;101618.19;4983773;28;20404;-73
2023/05/13 01:25:53;;;;;;;22.25;14.10;;;;;;;11.04;100.00;101618.19;5025232;28;20026;-72
2023/05/13 01:28:19;;;;;;;16.50;12.20;;;;;;;11.04;100.00;101625.16;5011124;28;20534;-72
2023/05/13 01:30:49;;;;;;;20.83;13.48;;;;;;;11.04;100.00;101622.56;5027734;28;20082;-73
2023/05/13 01:33:16;;;;;;;21.35;13.63;;;;;;;11.04;100.00;101623.38;5027794;28;20554;-73
2023/05/13 01:35:43;;;;;;;18.50;12.95;;;;;;;11.03;100.00;101628.69;5031036;28;20030;-73
2023/05/13 01:38:11;;;;;;;21.80;13.32;;;;;;;11.04;100.00;101630.34;4996409;28;20411;-73
2023/05/13 01:40:38;;;;;;;17.92;11.98;;;;;;;11.01;100.00;101628.81;5029440;28;20040;-73
2023/05/13 01:43:05;;;;;;;19.88;13.18;;;;;;;11.03;100.00;101631.28;5010096;28;20092;-73
2023/05/13 01:45:32;;;;;;;18.17;12.82;;;;;;;11.02;100.00;101633.06;5029864;28;20479;-73
2023/05/13 01:47:58;;;;;;;16.40;12.80;;;;;;;11.00;100.00;101632.41;5008672;28;20445;-73
2023/05/13 01:50:27;;;;;;;18.45;11.63;;;;;;;10.96;100.00;101633.59;5029274;28;20025;-73
2023/05/13 01:52:53;;;;;;;17.45;12.55;;;;;;;10.97;100.00;101629.25;5010134;28;20038;-72
2023/05/13 01:55:18;;;;;;;17.42;12.13;;;;;;;10.97;100.00;101637.84;5032077;28;20025;-73
2023/05/13 01:57:46;;;;;;;16.95;11.10;;;;;;;10.96;100.00;101632.78;5023707;28;20397;-73
2023/05/13 02:00:11;;;;;;;19.05;12.35;;;;;;;10.96;100.00;101636.19;5042344;28;20072;-73
2023/05/13 02:02:40;;;;;;;16.23;11.50;;;;;;;10.96;100.00;101637.97;5012427;28;20040;-72
2023/05/13 02:05:05;;;;;;;18.17;12.45;;;;;;;10.95;100.00;101636.34;4997393;28;20045;-73
2023/05/13 02:07:33;;;;;;;15.55;12.15;;;;;;;10.93;100.00;101635.69;5012118;28;20450;-73
2023/05/13 02:09:58;;;;;;;19.90;12.57;;;;;;;10.90;100.00;101637.56;5014356;28;20510;-73
2023/05/13 02:12:27;;;;;;;19.48;12.20;;;;;;;10.89;100.00;101630.75;5034492;28;20021;-74
2023/05/13 02:14:53;;;;;;;20.52;12.63;;;;;;;10.88;100.00;101636.06;5026504;28;20049;-73
2023/05/13 02:17:19;;;;;;;17.60;12.63;;;;;;;10.87;100.00;101639.66;4998071;28;20033;-73
2023/05/13 02:19:44;;;;;;;20.08;12.55;;;;;;;10.85;100.00;101633.75;5009284;28;20048;-73
2023/05/13 02:22:10;;;;;;;20.25;14.43;;;;;;;10.83;100.00;101636.50;4991334;28;20479;-73
2023/05/13 02:24:38;;;;;;;19.73;13.10;;;;;;;10.82;100.00;101642.63;5010965;28;20040;-73
2023/05/13 02:27:06;;;;;;;22.50;12.95;;;;;;;10.80;100.00;101638.56;4995959;28;20893;-73
2023/05/13 02:29:33;;;;;;;20.13;13.32;;;;;;;10.79;100.00;101642.09;5010837;28;20099;-73
2023/05/13 02:31:59;;;;;;;18.02;12.65;;;;;;;10.76;100.00;101635.41;5012579;28;20415;-73
2023/05/13 02:34:24;;;;;;;18.38;13.25;;;;;;;10.76;100.00;101639.78;5010889;28;20045;-73
2023/05/13 02:36:51;;;;;;;16.85;12.48;;;;;;;10.73;100.00;101638.25;5029399;28;20030;-72
2023/05/13 02:39:16;;;;;;;20.02;12.35;;;;;;;10.71;100.00;101638.38;5010794;28;20112;-73
2023/05/13 02:41:43;;;;;;;20.40;11.80;;;;;;;10.69;100.00;101645.50;5009828;28;20037;-73
2023/05/13 02:44:09;;;;;;;19.95;11.73;;;;;;;10.67;100.00;101634.44;4997501;28;20051;-73
2023/05/13 02:46:36;;;;;;;17.45;11.88;;;;;;;10.63;100.00;101634.84;5028423;28;20021;-73
2023/05/13 02:49:01;;;;;;;19.15;12.07;;;;;;;10.60;100.00;101641.13;5025324;28;21220;-73
2023/05/13 02:51:30;;;;;;;18.33;12.10;;;;;;;10.58;100.00;101635.25;4998425;28;20518;-73
2023/05/13 02:53:55;;;;;;;15.52;11.77;;;;;;;10.57;100.00;101637.97;5009120;28;20041;-72
2023/05/13 02:56:21;;;;;;;18.30;12.43;;;;;;;10.55;100.00;101637.28;5010964;28;20029;-73
2023/05/13 02:58:47;;;;;;;16.63;11.10;;;;;;;10.52;100.00;101640.97;4994129;28;20384;-73
2023/05/13 03:01:12;;;;;;;17.42;11.43;;;;;;;10.51;100.00;101642.75;5008395;28;20037;-73
2023/05/13 03:03:38;;;;;;;16.95;10.80;;;;;;;10.49;100.00;101634.31;5030123;28;20129;-72
2023/05/13 03:06:04;;;;;;;18.30;11.65;;;;;;;10.46;100.00;101636.34;4989761;28;20098;-73
2023/05/13 03:08:30;;;;;;;18.70;11.73;;;;;;;10.42;100.00;101632.38;5006383;28;20056;-73
2023/05/13 03:10:57;;;;;;;14.45;11.77;;;;;;;10.39;100.00;101632.66;5015007;28;20038;-73
2023/05/13 03:13:22;;;;;;;20.30;11.70;;;;;;;10.38;100.00;101638.78;5006229;28;20088;-72
2023/05/13 03:15:48;;;;;;;15.45;10.70;;;;;;;10.35;100.00;101639.06;4987015;28;20161;-73
2023/05/13 03:18:13;;;;;;;17.13;11.93;;;;;;;10.31;100.00;101633.31;5009005;28;20048;-72
2023/05/13 03:20:39;;;;;;;16.80;11.30;;;;;;;10.26;100.00;101636.25;5011520;28;20033;-73
2023/05/13 03:23:04;;;;;;;16.88;11.57;;;;;;;10.20;100.00;101631.63;5010373;28;20024;-73
2023/05/13 03:25:31;;;;;;;19.42;11.82;;;;;;;10.18;100.00;101630.13;5011238;28;20033;-73
2023/05/13 03:27:57;;;;;;;16.10;12.20;;;;;;;10.13;100.00;101631.34;5007704;28;20032;-72
2023/05/13 03:30:25;;;;;;;15.32;11.23;;;;;;;10.13;100.00;101627.91;5010861;28;20033;-73
2023/05/13 03:33:12;;;;;;;17.10;12.23;;;;;;;10.11;100.00;101635.84;5022964;28;23074;-73
2023/05/13 03:35:37;;;;;;;17.45;11.88;;;;;;;10.10;100.00;101630.78;5026478;28;20087;-73
2023/05/13 03:38:03;;;;;;;17.60;11.75;;;;;;;10.10;100.00;101635.97;5011172;28;20033;-73
2023/05/13 03:40:30;;;;;;;18.20;11.85;;;;;;;10.10;100.00;101630.78;5000142;28;20033;-73
2023/05/13 03:42:55;;;;;;;17.95;12.35;;;;;;;10.07;100.00;101631.84;5008410;28;20034;-72
2023/05/13 03:45:22;;;;;;;16.08;11.48;;;;;;;10.07;100.00;101636.22;5011824;28;20100;-72
2023/05/13 03:47:50;;;;;;;20.42;11.38;;;;;;;10.05;100.00;101636.34;5039128;28;20032;-73
2023/05/13 03:50:17;;;;;;;13.38;10.38;;;;;;;10.05;100.00;101636.34;5012105;28;20447;-73
2023/05/13 03:52:43;;;;;;;16.88;11.85;;;;;;;10.06;100.00;101632.00;5027233;28;20070;-73
2023/05/13 03:55:09;;;;;;;19.35;12.35;;;;;;;10.05;100.00;101641.53;5009125;28;20041;-72
2023/05/13 03:57:35;;;;;;;17.13;11.95;;;;;;;10.05;100.00;101638.13;5008922;28;20475;-72
2023/05/13 04:00:02;;;;;;;18.25;11.90;;;;;;;10.03;100.00;101640.84;5009747;28;20079;-72
2023/05/13 04:02:28;;;;;;;18.38;11.77;;;;;;;10.03;100.00;101648.63;5044696;28;20040;-73
2023/05/13 04:04:53;;;;;;;17.90;12.82;;;;;;;10.02;100.00;101643.56;5025099;28;20046;-74
2023/05/13 04:07:19;;;;;;;17.45;12.15;;;;;;;10.03;100.00;101650.41;5027941;28;20037;-73
2023/05/13 04:09:44;;;;;;;19.55;11.57;;;;;;;10.03;100.00;101651.22;5041236;28;20041;-72
2023/05/13 04:12:10;;;;;;;15.55;12.02;;;;;;;10.05;100.00;101651.91;4996030;28;20040;-73
2023/05/13 04:14:35;;;;;;;17.63;11.80;;;;;;;10.06;100.00;101653.56;5007807;28;20034;-72
2023/05/13 04:17:01;;;;;;;16.27;11.68;;;;;;;10.08;100.00;101648.25;5025378;28;20036;-73
2023/05/13 04:19:27;;;;;;;17.90;12.25;;;;;;;10.08;100.00;101656.84;5040828;28;20517;-73
2023/05/13 04:21:52;;;;;;;15.77;11.88;;;;;;;10.11;100.00;101658.31;5027088;28;20041;-73
2023/05/13 04:24:17;;;;;;;18.98;12.23;;;;;;;10.10;100.00;101657.50;5005246;28;20047;-73
2023/05/13 04:26:43;;;;;;;16.63;12.32;;;;;;;10.13;100.00;101656.41;5025742;28;20025;-72
2023/05/13 04:29:09;;;;;;;16.25;11.98;;;;;;;10.15;100.00;101657.09;5007305;28;20475;-72
2023/05/13 04:31:34;;;;;;;18.27;11.18;;;;;;;10.15;100.00;101662.28;5029011;28;20061;-73
2023/05/13 04:34:00;;;;;;;18.73;11.15;;;;;;;10.19;100.00;101662.84;5010281;28;20523;-73
2023/05/13 04:36:26;;;;;;;15.10;11.23;;;;;;;10.22;100.00;101662.59;4993225;28;20079;-72
2023/05/13 04:38:54;;;;;;;21.58;13.05;;;;;;;10.25;100.00;101662.34;5004655;28;20124;-72
2023/05/13 04:41:20;;;;;;;17.55;11.65;;;;;;;10.27;100.00;101660.44;4994122;28;20071;-73
2023/05/13 04:43:45;;;;;;;18.52;11.77;;;;;;;10.27;100.00;101648.28;5022756;28;20508;-73
2023/05/13 04:46:11;;;;;;;15.10;10.95;;;;;;;10.29;100.00;101666.31;5006663;28;20044;-74
2023/05/13 04:48:37;;;;;;;16.85;11.48;;;;;;;10.32;100.00;101664.28;5009395;28;20431;-73
2023/05/13 04:51:02;;;;;;;16.25;11.43;;;;;;;10.36;100.00;101656.22;4992484;28;20053;-73
2023/05/13 04:53:28;;;;;;;16.77;11.55;;;;;;;10.38;100.00;101659.50;5006984;28;20037;-73
2023/05/13 04:55:59;;;;;;;16.88;11.55;;;;;;;10.37;100.00;101666.47;5011756;28;20116;-74
2023/05/13 04:58:27;;;;;;;16.15;11.70;;;;;;;10.41;100.00;101673.03;5007874;28;20050;-73
2023/05/13 05:00:53;;;;;;;16.63;10.95;;;;;;;10.46;100.00;101664.88;5007491;28;20038;-72
2023/05/13 05:03:19;;;;;;;19.90;12.18;;;;;;;10.50;100.00;101671.41;5006297;28;20072;-72
2023/05/13 05:05:45;;;;;;;19.63;11.90;;;;;;;10.56;100.00;101670.88;5008376;28;20459;-72
2023/05/13 05:08:12;;;;;;;16.55;11.88;;;;;;;10.61;100.00;101673.91;5008850;28;20048;-72
2023/05/13 05:10:38;;;;;;;16.02;11.13;;;;;;;10.65;100.00;101679.63;5004625;28;20658;-72
2023/05/13 05:13:05;;;;;;;16.70;10.90;;;;;;;10.70;100.00;101677.47;5006345;28;20037;-72
2023/05/13 05:15:32;;;;;;;17.58;11.15;;;;;;;10.76;100.00;101682.09;4990516;28;20029;-73
2023/05/13 05:17:59;;;;;;;17.20;11.38;;;;;;;10.80;100.00;101678.28;4990525;28;20129;-72
2023/05/13 05:20:25;;;;;;;15.40;10.88;;;;;;;10.85;100.00;101683.88;5007658;28;20164;-72
2023/05/13 05:22:54;;;;;;;15.48;11.60;;;;;;;10.96;100.00;101679.50;5005837;28;20029;-72
2023/05/13 05:25:23;;;;;;;17.55;12.43;;;;;;;11.08;100.00;101681.00;5009242;28;20033;-72
2023/05/13 05:27:49;;;;;;;21.50;11.95;;;;;;;11.11;100.00;101685.91;5025037;28;20392;-72
2023/05/13 05:30:14;;;;;;;17.88;12.00;;;;;;;11.08;100.00;101679.22;5009764;28;20033;-72
2023/05/13 05:32:42;;;;;;;16.40;11.32;;;;;;;11.10;100.00;101681.69;5040086;28;20155;-72
2023/05/13 05:35:08;;;;;;;17.00;11.45;;;;;;;11.14;100.00;101683.03;5001881;28;20042;-73
2023/05/13 05:37:34;;;;;;;18.42;11.27;;;;;;;11.24;99.99;101681.25;5025614;28;20029;-72
2023/05/13 05:39:59;;;;;;;18.02;10.95;;;;;;;11.23;100.00;101677.03;5003040;28;20060;-73
2023/05/13 05:42:26;;;;;;;24.17;12.38;;;;;;;11.26;100.00;101674.16;5009192;28;20025;-72
2023/05/13 05:44:51;;;;;;;14.48;10.48;;;;;;;11.34;100.00;101675.22;5005077;28;20103;-72
2023/05/13 05:47:17;;;;;;;15.15;11.07;;;;;;;11.50;100.00;101683.25;5003334;28;20036;-72
2023/05/13 05:49:43;;;;;;;16.92;11.80;;;;;;;11.74;100.00;101680.19;5006457;28;20045;-72
2023/05/13 05:52:10;;;;;;;16.17;11.32;;;;;;;11.93;100.00;101681.13;5010263;28;20533;-72
2023/05/13 05:54:35;;;;;;;17.65;11.07;;;;;;;12.21;98.69;101682.75;5006503;28;20069;-72
2023/05/13 05:57:01;;;;;;;15.75;11.00;;;;;;;12.41;96.90;101688.66;5005690;28;20559;-72
2023/05/13 05:59:26;;;;;;;21.65;10.98;;;;;;;12.61;94.21;101685.94;5012422;28;20049;-72
2023/05/13 06:01:52;;;;;;;21.42;11.13;;;;;;;12.80;92.23;101682.38;4994170;28;20072;-72
2023/05/13 06:04:17;;;;;;;14.38;11.05;;;;;;;13.02;92.06;101679.31;5012103;28;20442;-72
2023/05/13 06:06:42;;;;;;;14.93;10.95;;;;;;;13.28;91.53;101683.75;4992858;28;20562;-72
2023/05/13 06:09:08;;;;;;;15.20;10.15;;;;;;;13.51;90.97;101691.88;5011926;28;20041;-72
2023/05/13 06:11:34;;;;;;;16.02;10.18;;;;;;;13.74;90.05;101688.75;5029712;28;20041;-73
2023/05/13 06:14:00;;;;;;;18.83;10.50;;;;;;;13.91;87.90;101687.84;5012251;28;20048;-72
2023/05/13 06:16:25;;;;;;;18.13;10.52;;;;;;;14.12;85.57;101684.03;5030566;28;20029;-72
2023/05/13 06:18:51;;;;;;;13.77;8.90;;;;;;;14.24;83.67;101685.38;5009875;28;20518;-72
2023/05/13 06:21:17;;;;;;;17.80;10.18;;;;;;;14.37;82.41;101682.31;5007763;28;20416;-72
2023/05/13 06:23:42;;;;;;;19.33;10.15;;;;;;;14.43;82.39;101679.06;5017091;28;20396;-72
2023/05/13 06:26:08;;;;;;;17.20;10.48;;;;;;;14.59;81.81;101684.34;4994684;28;20040;-73
2023/05/13 06:28:34;;;;;;;19.55;10.15;;;;;;;14.68;80.55;101682.56;5007917;28;20041;-72
2023/05/13 06:30:59;;;;;;;15.35;10.23;;;;;;;14.58;80.59;101694.97;5025988;28;20425;-72
2023/05/13 06:33:25;;;;;;;15.25;10.18;;;;;;;14.28;82.89;101696.28;5026671;28;20045;-72
2023/05/13 06:35:50;;;;;;;14.00;9.98;;;;;;;14.54;82.04;101690.97;5009740;28;20079;-73
2023/05/13 06:38:18;;;;;;;14.88;9.10;;;;;;;14.80;81.72;101696.09;5007713;28;20038;-73
2023/05/13 06:40:45;;;;;;;18.50;10.43;;;;;;;15.11;80.73;101692.88;5006966;28;20037;-72
2023/05/13 06:43:13;;;;;;;15.75;9.93;;;;;;;15.29;80.11;101688.25;4994439;28;20418;-73
2023/05/13 06:45:44;;;;;;;19.42;9.38;;;;;;;15.53;78.61;101697.06;5007181;28;20615;-73
2023/05/13 06:48:09;;;;;;;17.23;9.52;;;;;;;15.75;77.95;101687.72;5010344;28;20124;-72
2023/05/13 06:50:36;;;;;;;21.85;10.55;;;;;;;15.71;76.99;101689.00;5014775;28;20080;-73
2023/05/13 06:53:02;;;;;;;15.90;9.93;;;;;;;15.98;77.36;101690.41;5012246;28;20026;-73
2023/05/13 06:55:27;;;;;;;12.68;8.32;;;;;;;16.29;76.30;101693.03;5042836;28;20052;-73
2023/05/13 06:57:53;;;;;;;18.98;8.80;;;;;;;16.76;74.57;101699.09;5027453;28;20045;-72
2023/05/13 07:00:18;;;;;;;18.55;10.75;;;;;;;17.12;72.60;101698.53;5014884;28;20510;-73
2023/05/13 07:02:44;;;;;;;18.60;9.73;;;;;;;17.43;69.85;101695.78;5011474;28;20423;-73
2023/05/13 07:05:10;;;;;;;19.00;8.73;;;;;;;17.44;68.81;101699.22;5025461;28;20046;-73
2023/05/13 07:07:36;;;;;;;36.05;18.70;;;;;;;17.83;68.25;101698.94;5012784;28;20091;-73
2023/05/13 07:10:01;;;;;;;15.95;9.85;;;;;;;18.25;65.61;101696.63;5024001;28;20041;-73
2023/05/13 07:12:27;;;;;;;17.77;9.45;;;;;;;18.43;65.22;101707.53;5027104;28;20811;-73
2023/05/13 07:14:52;;;;;;;16.90;9.13;;;;;;;18.93;62.74;101706.81;5027400;28;20625;-73
2023/05/13 07:17:18;;;;;;;15.50;8.85;;;;;;;19.11;60.84;101701.13;5025180;28;20607;-73
2023/05/13 07:19:43;;;;;;;20.52;9.43;;;;;;;19.11;59.85;101694.03;5009353;28;20104;-73
2023/05/13 07:22:09;;;;;;;15.48;9.05;;;;;;;19.53;61.92;101697.53;5028077;28;20033;-73
2023/05/13 07:24:34;;;;;;;16.27;8.35;;;;;;;19.56;58.77;101697.16;5007793;28;20041;-74
2023/05/13 07:27:00;;;;;;;16.73;8.45;;;;;;;19.68;58.40;101702.69;4992253;28;20045;-74
2023/05/13 07:29:26;;;;;;;15.32;8.48;;;;;;;19.99;58.79;101701.47;5013905;28;20056;-74
2023/05/13 07:31:51;;;;;;;20.13;8.95;;;;;;;20.06;57.87;101698.84;5032184;28;20033;-74
2023/05/13 07:34:17;;;;;;;15.98;7.72;;;;;;;19.96;58.73;101701.84;5029282;28;20053;-74
2023/05/13 07:36:43;;;;;;;15.00;8.68;;;;;;;19.63;57.29;101705.09;5008365;28;20037;-74
2023/05/13 07:39:09;;;;;;;18.75;8.95;;;;;;;19.56;56.54;101705.06;5028772;28;20045;-74
2023/05/13 07:41:35;;;;;;;14.13;7.35;;;;;;;20.26;56.33;101701.53;5005395;28;20037;-75
2023/05/13 07:44:01;;;;;;;18.10;8.50;;;;;;;20.28;55.04;101702.97;5022656;28;20045;-74
2023/05/13 07:46:26;;;;;;;13.85;7.18;;;;;;;20.56;54.71;101694.09;5001705;28;20112;-74
2023/05/13 07:48:52;;;;;;;16.17;7.97;;;;;;;20.79;54.04;101691.13;4987872;28;20049;-74
2023/05/13 07:51:17;;;;;;;12.60;7.25;;;;;;;21.32;53.09;101690.25;5037974;28;20041;-74
2023/05/13 07:53:45;;;;;;;12.90;7.55;;;;;;;21.69;53.51;101686.13;5010944;28;20047;-74
2023/05/13 07:56:11;;;;;;;13.43;8.90;;;;;;;21.65;52.63;101684.94;5024704;28;20036;-74
2023/05/13 07:58:36;;;;;;;14.82;8.05;;;;;;;21.73;52.44;101687.34;5026494;28;20479;-74
2023/05/13 08:01:03;;;;;;;15.73;8.02;;;;;;;21.83;52.83;101683.44;5028168;28;20041;-74
2023/05/13 08:03:29;;;;;;;15.27;7.30;;;;;;;22.14;51.29;101686.13;5026976;28;20053;-74
2023/05/13 08:05:55;;;;;;;12.75;7.18;;;;;;;22.11;50.54;101680.47;5026726;28;20037;-73
2023/05/13 08:08:20;;;;;;;15.75;7.72;;;;;;;22.25;50.03;101689.16;5026565;28;20050;-74
2023/05/13 08:10:45;;;;;;;11.13;7.43;;;;;;;22.42;51.46;101692.91;5021511;28;20095;-74
2023/05/13 08:13:11;;;;;;;14.18;7.10;;;;;;;22.57;50.47;101684.69;5025579;28;20052;-74
2023/05/13 08:15:37;;;;;;;11.95;7.70;;;;;;;22.63;50.05;101683.81;5028406;28;20025;-74
2023/05/13 08:18:02;;;;;;;12.02;6.88;;;;;;;22.67;51.10;101685.00;5023315;28;20052;-74
2023/05/13 08:20:28;;;;;;;11.60;7.28;;;;;;;22.94;51.21;101688.25;5024813;28;20076;-74
2023/05/13 08:22:55;;;;;;;12.00;7.28;;;;;;;23.24;48.92;101687.56;5021284;28;20698;-74
2023/05/13 08:25:21;;;;;;;11.38;6.47;;;;;;;23.19;49.00;101691.91;5005553;28;20021;-74
2023/05/13 08:27:46;;;;;;;10.90;6.60;;;;;;;23.22;49.19;101683.53;4991208;28;20060;-74
2023/05/13 08:30:12;;;;;;;13.18;7.15;;;;;;;23.09;48.02;101684.47;5029122;28;20034;-74
2023/05/13 08:32:38;;;;;;;13.45;6.95;;;;;;;23.29;48.24;101673.72;5030347;28;20025;-74
2023/05/13 08:35:03;;;;;;;12.90;7.07;;;;;;;23.39;46.38;101676.63;5024093;28;20625;-75
2023/05/13 08:37:29;;;;;;;11.85;6.40;;;;;;;23.28;47.40;101677.38;5023746;28;20491;-74
2023/05/13 08:39:55;;;;;;;14.73;7.80;;;;;;;23.35;46.94;101682.59;5006825;28;20045;-75
2023/05/13 08:42:22;;;;;;;14.90;6.97;;;;;;;23.33;48.11;101685.47;5026299;28;20509;-74
2023/05/13 08:44:48;;;;;;;17.25;6.40;;;;;;;23.74;47.45;101686.63;5023534;28;20049;-75
2023/05/13 08:47:20;;;;;;;9.20;5.97;;;;;;;23.85;46.53;101682.47;5009730;28;20576;-74
2023/05/13 08:49:47;;;;;;;9.43;5.85;;;;;;;24.05;48.26;101677.72;5023497;28;20128;-74
2023/05/13 08:52:12;;;;;;;9.55;5.68;;;;;;;24.37;47.23;101679.28;5022899;28;20468;-74
2023/05/13 08:54:38;;;;;;;15.50;5.88;;;;;;;24.29;45.44;101683.09;5022140;28;20092;-74
2023/05/13 08:57:04;;;;;;;12.55;6.00;;;;;;;24.26;45.20;101688.81;5012330;28;20107;-75
2023/05/13 08:59:29;;;;;;;12.52;6.35;;;;;;;23.79;44.10;101678.03;4999360;28;20047;-74
2023/05/13 09:01:55;;;;;;;14.85;5.78;;;;;;;23.62;46.67;101689.22;5026514;28;20045;-74
2023/05/13 09:04:21;;;;;;;13.10;6.85;;;;;;;23.61;45.26;101682.31;5026095;28;20037;-74
2023/05/13 09:06:49;;;;;;;12.00;5.53;;;;;;;23.99;44.98;101683.09;5026424;28;20028;-74
2023/05/13 09:09:15;;;;;;;12.48;6.32;;;;;;;23.69;45.67;101687.28;5008511;28;20049;-74
2023/05/13 09:11:40;;;;;;;10.65;5.70;;;;;;;23.56;45.86;101682.16;5024032;28;20044;-74
2023/05/13 09:14:07;;;;;;;10.40;5.40;;;;;;;24.32;44.56;101677.34;5007645;28;20607;-74
2023/05/13 09:16:34;;;;;;;8.95;4.63;;;;;;;24.35;43.88;101671.56;5008363;28;20049;-74
2023/05/13 09:19:04;;;;;;;12.82;5.63;;;;;;;24.49;44.91;101670.34;5018727;28;20037;-74
2023/05/13 09:21:32;;;;;;;17.75;5.25;;;;;;;24.24;44.86;101665.22;5021057;28;20038;-74
2023/05/13 09:24:08;;;;;;;11.27;5.35;;;;;;;23.58;45.45;101674.78;5025560;28;20077;-74
2023/05/13 09:26:34;;;;;;;11.13;5.00;;;;;;;24.01;46.48;101673.09;5023875;28;20460;-74
2023/05/13 09:29:18;;;;;;;7.55;4.53;;;;;;;23.54;46.35;101668.34;5007173;28;20049;-74
2023/05/13 09:31:47;;;;;;;12.35;4.22;;;;;;;23.22;46.75;101671.13;5025059;28;20248;-74
2023/05/13 09:34:13;;;;;;;8.85;4.60;;;;;;;22.73;47.33;101675.41;5028283;28;20122;-74
2023/05/13 09:36:38;;;;;;;9.43;4.07;;;;;;;22.50;47.46;101666.22;5012145;28;20446;-74
2023/05/13 09:39:04;;;;;;;12.45;4.43;;;;;;;22.19;48.95;101669.66;5017148;28;20063;-74
2023/05/13 09:41:30;;;;;;;8.75;4.43;;;;;;;21.97;49.15;101677.09;5029121;28;20041;-75
2023/05/13 09:43:57;;;;;;;9.25;4.85;;;;;;;21.74;49.52;101667.84;5009307;28;20049;-74
2023/05/13 09:46:24;;;;;;;9.70;5.03;;;;;;;21.75;49.87;101669.44;5030230;28;20029;-75
2023/05/13 09:48:54;;;;;;;10.57;4.80;;;;;;;21.77;49.73;101659.53;5025873;28;20522;-74
2023/05/13 09:51:30;;;;;;;6.97;3.90;;;;;;;21.68;49.60;101666.06;5034094;28;20526;-74
2023/05/13 09:54:05;;;;;;;7.50;4.03;;;;;;;21.73;49.56;101663.56;5026288;28;20051;-74
2023/05/13 09:56:35;;;;;;;13.15;5.13;;;;;;;22.42;46.84;101657.78;4991579;28;20037;-74
2023/05/13 09:59:01;;;;;;;10.38;4.30;;;;;;;23.13;44.93;101652.09;5022659;28;20037;-74
2023/05/13 10:01:27;;;;;;;6.80;4.35;;;;;;;23.19;45.98;101652.22;5027188;28;20052;-74
2023/05/13 10:03:58;;;;;;;10.30;4.68;;;;;;;23.06;46.63;101650.56;5028140;28;20076;-74
2023/05/13 10:06:28;;;;;;;10.82;4.85;;;;;;;23.05;46.63;101649.72;5027723;28;20041;-74
2023/05/13 10:08:57;;;;;;;12.25;4.35;;;;;;;23.19;41.55;101647.78;5013358;28;20707;-74
2023/05/13 10:11:24;;;;;;;12.43;4.38;;;;;;;22.77;44.94;101649.34;5029245;28;20087;-74
2023/05/13 10:13:55;;;;;;;9.15;4.40;;;;;;;23.15;46.48;101641.31;5024657;28;20134;-74
2023/05/13 10:16:22;;;;;;;8.15;4.53;;;;;;;23.25;45.97;101641.59;5028835;28;20518;-74
2023/05/13 10:18:48;;;;;;;11.57;4.32;;;;;;;23.39;43.60;101642.25;5024780;28;20052;-74
2023/05/13 10:21:13;;;;;;;10.55;4.00;;;;;;;23.36;44.48;101634.75;5027973;28;20029;-75
2023/05/13 10:23:39;;;;;;;8.23;3.80;;;;;;;23.62;43.50;101640.75;5010158;28;20046;-74
2023/05/13 10:26:05;;;;;;;11.57;3.75;;;;;;;23.67;41.62;101632.97;4996295;28;20017;-75
2023/05/13 10:28:31;;;;;;;8.98;3.78;;;;;;;23.68;45.75;101634.59;5029174;28;20037;-74
2023/05/13 10:30:57;;;;;;;13.10;4.28;;;;;;;23.38;41.88;101643.28;5028694;28;20044;-75
2023/05/13 10:33:23;;;;;;;9.85;4.28;;;;;;;23.27;44.14;101639.53;5034675;28;20034;-75
2023/05/13 10:36:34;;;;;;;11.07;4.45;;;;;;;23.64;44.13;101631.56;5037486;28;20042;-74
2023/05/13 10:39:15;;;;;;;8.70;3.80;;;;;;;23.51;42.88;101619.31;5026740;28;20086;-74
2023/05/13 10:42:26;;;;;;;9.27;4.00;;;;;;;23.84;43.33;101622.59;5027482;28;20479;-74
2023/05/13 10:44:54;;;;;;;12.85;3.80;;;;;;;24.16;47.06;101623.13;5028644;28;20561;-74
2023/05/13 10:47:19;;;;;;;6.88;3.78;;;;;;;24.23;44.27;101620.41;5027553;28;20436;-74
2023/05/13 10:49:52;;;;;;;5.65;3.50;;;;;;;24.52;44.06;101608.13;5007027;28;20176;-74
2023/05/13 10:52:18;;;;;;;8.68;3.50;;;;;;;24.44;41.64;101606.59;5028518;28;20041;-73
2023/05/13 10:54:59;;;;;;;9.77;3.47;;;;;;;24.12;41.28;101610.59;5023065;28;20042;-74
2023/05/13 10:57:37;;;;;;;5.13;3.05;;;;;;;24.31;41.81;101598.06;5027092;28;20071;-74
2023/05/13 11:00:15;;;;;;;8.88;3.53;;;;;;;24.31;39.82;101606.81;5025271;28;20052;-74
2023/05/13 11:02:41;;;;;;;11.20;3.70;;;;;;;24.23;39.93;101602.66;5022185;28;20196;-74
2023/05/13 11:05:06;;;;;;;8.07;3.53;;;;;;;24.04;38.64;101606.44;5025075;28;20537;-74
2023/05/13 11:07:38;;;;;;;6.90;3.42;;;;;;;24.30;39.70;101597.28;5026468;28;20048;-75
2023/05/13 11:10:22;;;;;;;5.60;3.15;;;;;;;24.44;41.28;101603.94;5024418;28;20049;-74